createdAt,value
2023-01-02T00:01:36.244Z,22.00
2023-01-02T00:04:04.585Z,19.25
2023-01-02T00:06:37.248Z,21.00
2023-01-02T00:09:06.941Z,18.00
2023-01-02T00:11:35.437Z,18.50
2023-01-02T00:14:03.760Z,20.25
2023-01-02T00:16:32.096Z,20.00
2023-01-02T00:19:00.493Z,21.00
2023-01-02T00:21:28.785Z,20.25
2023-01-02T00:23:57.127Z,21.25
2023-01-02T00:26:25.441Z,20.50
2023-01-02T00:28:53.740Z,20.00
2023-01-02T00:31:22.132Z,20.00
2023-01-02T00:33:50.450Z,20.00
2023-01-02T00:36:18.825Z,19.00
2023-01-02T00:38:47.116Z,18.75
2023-01-02T00:41:15.415Z,20.25
2023-01-02T00:43:44.520Z,19.75
2023-01-02T00:46:12.940Z,22.00
2023-01-02T00:48:41.686Z,21.75
2023-01-02T00:51:10.447Z,19.75
2023-01-02T00:53:39.208Z,22.00
2023-01-02T00:56:07.886Z,20.75
2023-01-02T00:58:36.314Z,20.50
2023-01-02T01:01:05.306Z,22.00
2023-01-02T01:03:33.638Z,22.00
2023-01-02T01:06:08.442Z,20.50
2023-01-02T01:08:38.471Z,20.75
2023-01-02T01:11:11.831Z,20.00
2023-01-02T01:13:40.569Z,18.00
2023-01-02T01:16:15.136Z,18.25
2023-01-02T01:18:43.885Z,22.00
2023-01-02T01:21:20.759Z,19.00
2023-01-02T01:23:56.782Z,20.00
2023-01-02T01:26:25.523Z,19.75
2023-01-02T01:28:55.495Z,19.50
2023-01-02T01:31:24.621Z,19.00
2023-01-02T01:33:53.026Z,17.50
2023-01-02T01:36:24.852Z,19.25
2023-01-02T01:38:53.317Z,17.75
2023-01-02T01:41:24.638Z,17.25
2023-01-02T01:43:59.032Z,18.00
2023-01-02T01:46:36.744Z,18.50
2023-01-02T01:49:14.077Z,17.00
2023-01-02T01:51:53.991Z,19.00
2023-01-02T01:54:31.737Z,15.50
2023-01-02T01:57:05.871Z,17.75
2023-01-02T01:59:36.393Z,18.50
2023-01-02T02:02:04.911Z,18.00
2023-01-02T02:04:33.580Z,17.75
2023-01-02T02:07:02.341Z,19.25
2023-01-02T02:09:45.691Z,18.25
2023-01-02T02:12:15.429Z,18.00
2023-01-02T02:14:43.723Z,17.50
2023-01-02T02:17:30.603Z,19.00
2023-01-02T02:20:25.732Z,19.00
2023-01-02T02:23:33.372Z,17.25
2023-01-02T02:26:13.731Z,19.75
2023-01-02T02:29:12.576Z,17.00
2023-01-02T02:31:52.483Z,19.00
2023-01-02T02:34:35.889Z,18.00
2023-01-02T02:37:30.967Z,17.75
2023-01-02T02:40:04.951Z,16.75
2023-01-02T02:43:10.465Z,15.25
2023-01-02T02:45:50.152Z,16.50
2023-01-02T02:48:27.779Z,16.25
2023-01-02T02:51:14.426Z,16.25
2023-01-02T02:53:55.824Z,17.50
2023-01-02T02:56:28.629Z,16.00
2023-01-02T02:59:00.997Z,13.00
2023-01-02T03:01:31.383Z,14.75
2023-01-02T03:04:00.232Z,13.00
2023-01-02T03:06:37.393Z,12.75
2023-01-02T03:09:28.248Z,11.00
2023-01-02T03:12:15.911Z,13.00
2023-01-02T03:15:05.714Z,13.00
2023-01-02T03:18:15.095Z,15.25
2023-01-02T03:20:48.601Z,14.25
2023-01-02T03:23:25.192Z,14.00
2023-01-02T03:25:54.651Z,12.75
2023-01-02T03:28:27.446Z,14.00
2023-01-02T03:31:01.065Z,14.00
2023-01-02T03:33:34.219Z,13.75
2023-01-02T03:36:07.571Z,14.50
2023-01-02T03:38:42.579Z,14.25
2023-01-02T03:41:22.554Z,14.25
2023-01-02T03:43:57.000Z,13.00
2023-01-02T03:46:36.453Z,13.00
2023-01-02T03:49:35.848Z,11.75
2023-01-02T03:52:04.245Z,15.00
2023-01-02T03:54:33.092Z,13.75
2023-01-02T03:57:15.649Z,15.00
2023-01-02T04:00:12.074Z,14.50
2023-01-02T04:02:46.259Z,12.50
2023-01-02T04:05:47.184Z,14.00
2023-01-02T04:08:25.344Z,13.25
2023-01-02T04:10:58.932Z,14.00
2023-01-02T04:13:47.628Z,12.75
2023-01-02T04:16:22.244Z,14.50
2023-01-02T04:19:02.677Z,13.50
2023-01-02T04:21:35.425Z,13.50
2023-01-02T04:24:11.557Z,12.25
2023-01-02T04:27:11.956Z,16.00
2023-01-02T04:29:40.822Z,15.25
2023-01-02T04:32:24.257Z,14.75
2023-01-02T04:34:54.435Z,16.00
2023-01-02T04:37:35.495Z,14.25
2023-01-02T04:40:28.963Z,14.25
2023-01-02T04:42:57.537Z,13.00
2023-01-02T04:45:25.926Z,14.50
2023-01-02T04:47:54.239Z,13.75
2023-01-02T04:50:22.917Z,13.25
2023-01-02T04:52:51.260Z,16.00
2023-01-02T04:55:19.552Z,13.25
2023-01-02T04:57:48.117Z,13.50
2023-01-02T05:00:16.809Z,15.25
2023-01-02T05:02:45.209Z,15.00
2023-01-02T05:05:13.649Z,16.75
2023-01-02T05:07:42.023Z,15.00
2023-01-02T05:10:10.979Z,15.00
2023-01-02T05:12:40.612Z,13.00
2023-01-02T05:15:11.588Z,12.50
2023-01-02T05:17:42.407Z,12.00
2023-01-02T05:20:15.469Z,14.25
2023-01-02T05:23:03.623Z,15.50
2023-01-02T05:25:36.803Z,13.25
2023-01-02T05:28:05.814Z,11.75
2023-01-02T05:30:34.260Z,15.00
2023-01-02T05:33:02.692Z,13.50
2023-01-02T05:35:33.349Z,12.50
2023-01-02T05:38:02.675Z,12.75
2023-01-02T05:40:31.777Z,16.00
2023-01-02T05:43:00.625Z,12.25
2023-01-02T05:45:29.434Z,16.25
2023-01-02T05:47:57.785Z,16.00
2023-01-02T05:50:26.107Z,12.25
2023-01-02T05:52:54.435Z,13.00
2023-01-02T05:55:22.865Z,12.50
2023-01-02T05:57:55.188Z,15.00
2023-01-02T06:00:23.572Z,12.50
2023-01-02T06:02:52.218Z,13.50
2023-01-02T06:05:20.571Z,12.75
2023-01-02T06:07:48.905Z,12.25
2023-01-02T06:10:17.298Z,12.50
2023-01-02T06:12:45.567Z,10.75
2023-01-02T06:15:13.849Z,14.00
2023-01-02T06:17:42.235Z,15.00
2023-01-02T06:20:11.089Z,12.00
2023-01-02T06:22:39.390Z,12.00
2023-01-02T06:25:08.124Z,13.75
2023-01-02T06:27:37.087Z,13.00
2023-01-02T06:30:05.859Z,13.00
2023-01-02T06:32:34.184Z,13.25
2023-01-02T06:35:05.255Z,13.75
2023-01-02T06:37:33.559Z,14.25
2023-01-02T06:40:01.864Z,11.50
2023-01-02T06:42:30.148Z,13.25
2023-01-02T06:44:58.500Z,14.75
2023-01-02T06:47:26.784Z,15.50
2023-01-02T06:49:55.048Z,15.00
2023-01-02T06:52:23.443Z,12.75
2023-01-02T06:54:51.755Z,15.50
2023-01-02T06:57:20.033Z,14.50
2023-01-02T06:59:48.370Z,13.00
2023-01-02T07:02:16.942Z,12.25
2023-01-02T07:04:45.316Z,14.00
2023-01-02T07:07:13.598Z,16.75
2023-01-02T07:09:41.882Z,15.50
2023-01-02T07:12:10.232Z,13.75
2023-01-02T07:14:38.528Z,13.00
2023-01-02T07:17:06.811Z,14.25
2023-01-02T07:19:35.190Z,12.25
2023-01-02T07:22:03.460Z,16.00
2023-01-02T07:24:31.848Z,14.00
2023-01-02T07:27:00.118Z,12.75
2023-01-02T07:29:28.551Z,12.75
2023-01-02T07:31:56.964Z,13.75
2023-01-02T07:34:25.293Z,11.00
2023-01-02T07:36:53.597Z,10.75
2023-01-02T07:39:23.159Z,11.75
2023-01-02T07:41:51.477Z,11.00
2023-01-02T07:44:19.820Z,14.50
2023-01-02T07:46:48.129Z,14.00
2023-01-02T07:49:16.495Z,14.75
2023-01-02T07:51:44.773Z,14.75
2023-01-02T07:54:13.112Z,16.25
2023-01-02T07:56:41.412Z,17.00
2023-01-02T07:59:09.893Z,18.00
2023-01-02T08:01:38.294Z,14.75
2023-01-02T08:04:06.708Z,16.00
2023-01-02T08:06:35.271Z,14.50
2023-01-02T08:09:03.565Z,15.75
2023-01-02T08:11:31.962Z,8.25
2023-01-02T08:14:00.346Z,11.25
2023-01-02T08:16:29.106Z,10.25
2023-01-02T08:19:00.865Z,10.00
2023-01-02T08:21:29.386Z,8.75
2023-01-02T08:23:59.624Z,11.00
2023-01-02T08:26:27.969Z,8.00
2023-01-02T08:28:56.277Z,9.00
2023-01-02T08:31:24.924Z,8.75
2023-01-02T08:33:53.547Z,8.75
2023-01-02T08:36:22.304Z,7.25
2023-01-02T08:38:50.855Z,5.50
2023-01-02T08:41:36.209Z,7.00
2023-01-02T08:44:04.878Z,5.50
2023-01-02T08:46:40.070Z,7.00
2023-01-02T08:49:10.542Z,6.00
2023-01-02T08:51:38.976Z,8.50
2023-01-02T08:54:07.411Z,9.50
2023-01-02T08:56:36.914Z,9.50
2023-01-02T08:59:08.244Z,8.00
2023-01-02T09:01:37.786Z,7.00
2023-01-02T09:04:11.917Z,8.00
2023-01-02T09:06:41.842Z,8.50
2023-01-02T09:09:12.399Z,7.50
2023-01-02T09:11:51.608Z,7.50
2023-01-02T09:14:22.298Z,7.75
2023-01-02T09:16:55.873Z,8.25
2023-01-02T09:19:24.133Z,8.00
2023-01-02T09:21:52.504Z,7.25
2023-01-02T09:24:20.821Z,8.25
2023-01-02T09:26:49.256Z,6.50
2023-01-02T09:29:17.651Z,6.00
2023-01-02T09:31:46.012Z,6.00
2023-01-02T09:34:14.728Z,8.00
2023-01-02T09:36:44.102Z,6.50
2023-01-02T09:39:13.616Z,8.25
2023-01-02T09:41:54.283Z,7.25
2023-01-02T09:44:41.208Z,7.50
2023-01-02T09:47:13.557Z,6.00
2023-01-02T09:49:51.301Z,7.75
2023-01-02T09:52:45.403Z,7.00
2023-01-02T09:56:00.341Z,8.00
2023-01-02T09:58:34.467Z,8.00
2023-01-02T10:01:04.008Z,9.75
2023-01-02T10:04:01.671Z,9.25
2023-01-02T10:06:55.874Z,8.00
2023-01-02T10:09:43.345Z,6.00
2023-01-02T10:12:47.162Z,7.50
2023-01-02T10:15:21.273Z,7.50
2023-01-02T10:17:53.556Z,7.25
2023-01-02T10:20:29.085Z,8.50
2023-01-02T10:23:17.331Z,8.00
2023-01-02T10:25:57.562Z,8.00
2023-01-02T10:28:26.272Z,6.75
2023-01-02T10:31:07.019Z,7.00
2023-01-02T10:34:02.774Z,19.75
2023-01-02T10:36:41.017Z,16.50
2023-01-02T10:39:21.043Z,19.00
2023-01-02T10:41:55.137Z,16.00
2023-01-02T10:44:38.693Z,18.00
2023-01-02T10:47:23.924Z,17.50
2023-01-02T10:49:57.251Z,16.50
2023-01-02T10:52:49.959Z,20.75
2023-01-02T10:55:39.333Z,20.50
2023-01-02T10:58:29.526Z,20.25
2023-01-02T11:01:20.779Z,19.00
2023-01-02T11:03:55.532Z,19.75
2023-01-02T11:06:38.976Z,17.00
2023-01-02T11:09:21.720Z,16.75
2023-01-02T11:11:56.312Z,15.00
2023-01-02T11:14:32.219Z,13.25
2023-01-02T11:17:05.810Z,13.00
2023-01-02T11:19:51.930Z,14.25
2023-01-02T11:22:34.334Z,12.50
2023-01-02T11:25:14.438Z,13.00
2023-01-02T11:27:45.697Z,11.00
2023-01-02T11:30:39.879Z,12.00
2023-01-02T11:33:20.482Z,11.50
2023-01-02T11:35:58.072Z,12.00
2023-01-02T11:38:41.148Z,13.00
2023-01-02T11:41:23.481Z,11.50
2023-01-02T11:43:58.422Z,10.75
2023-01-02T11:46:39.330Z,9.00
2023-01-02T11:49:29.717Z,11.00
2023-01-02T11:52:04.250Z,9.50
2023-01-02T11:54:45.395Z,12.00
2023-01-02T11:57:20.369Z,12.00
2023-01-02T11:59:51.476Z,11.00
2023-01-02T12:02:31.358Z,11.50
2023-01-02T12:04:59.714Z,10.50
2023-01-02T12:07:46.919Z,11.25
2023-01-02T12:10:28.387Z,11.25
2023-01-02T12:13:18.161Z,11.00
2023-01-02T12:16:08.080Z,10.00
2023-01-02T12:19:09.790Z,9.75
2023-01-02T12:21:47.051Z,11.00
2023-01-02T12:24:45.709Z,11.75
2023-01-02T12:27:33.354Z,11.00
2023-01-02T12:30:35.067Z,14.00
2023-01-02T12:33:29.217Z,8.75
2023-01-02T12:36:25.458Z,10.50
2023-01-02T12:39:12.942Z,9.00
2023-01-02T12:42:27.347Z,10.00
2023-01-02T12:45:00.357Z,10.00
2023-01-02T12:48:12.943Z,10.25
2023-01-02T12:51:08.414Z,12.00
2023-01-02T12:53:48.513Z,10.50
2023-01-02T12:56:55.336Z,11.75
2023-01-02T12:59:50.411Z,12.00
2023-01-02T13:02:49.642Z,9.75
2023-01-02T13:05:36.389Z,10.75
2023-01-02T13:08:23.588Z,9.75
2023-01-02T13:10:52.613Z,9.25
2023-01-02T13:13:26.601Z,10.75
2023-01-02T13:16:03.781Z,12.00
2023-01-02T13:19:00.551Z,10.50
2023-01-02T13:21:42.626Z,10.75
2023-01-02T13:24:17.196Z,11.25
2023-01-02T13:26:45.702Z,11.75
2023-01-02T13:29:14.014Z,10.75
2023-01-02T13:31:49.104Z,11.25
2023-01-02T13:34:29.561Z,9.25
2023-01-02T13:37:14.535Z,11.25
2023-01-02T13:39:42.783Z,15.50
2023-01-02T13:42:42.432Z,14.25
2023-01-02T13:46:05.262Z,14.50
2023-01-02T13:48:41.012Z,15.25
2023-01-02T13:51:22.135Z,14.00
2023-01-02T13:53:53.134Z,12.00
2023-01-02T13:56:22.727Z,13.00
2023-01-02T13:59:02.647Z,12.00
2023-01-02T14:02:04.295Z,13.75
2023-01-02T14:04:36.145Z,15.00
2023-01-02T14:07:26.005Z,15.50
2023-01-02T14:10:12.204Z,18.00
2023-01-02T14:12:53.623Z,14.75
2023-01-02T14:15:26.206Z,15.00
2023-01-02T14:18:06.140Z,14.50
2023-01-02T14:20:43.999Z,15.00
2023-01-02T14:23:28.453Z,14.25
2023-01-02T14:25:57.750Z,13.00
2023-01-02T14:28:31.419Z,13.25
2023-01-02T14:31:02.833Z,11.75
2023-01-02T14:33:35.951Z,12.50
2023-01-02T14:36:09.885Z,13.75
2023-01-02T14:38:58.462Z,12.75
2023-01-02T14:42:10.021Z,14.00
2023-01-02T14:44:49.030Z,15.00
2023-01-02T14:47:24.290Z,13.50
2023-01-02T14:49:59.283Z,15.00
2023-01-02T14:52:34.846Z,14.25
2023-01-02T14:55:21.207Z,14.00
2023-01-02T14:57:52.144Z,14.25
2023-01-02T15:00:35.575Z,12.50
2023-01-02T15:03:32.994Z,12.75
2023-01-02T15:06:09.510Z,13.25
2023-01-02T15:08:48.652Z,12.75
2023-01-02T15:11:41.842Z,14.00
2023-01-02T15:14:23.592Z,15.00
2023-01-02T15:17:01.629Z,12.00
2023-01-02T15:19:36.102Z,10.75
2023-01-02T15:22:18.149Z,12.50
2023-01-02T15:24:51.795Z,10.75
2023-01-02T15:27:28.667Z,12.75
2023-01-02T15:30:03.001Z,11.75
2023-01-02T15:32:34.448Z,11.50
2023-01-02T15:35:14.404Z,12.50
2023-01-02T15:37:44.977Z,12.00
2023-01-02T15:40:33.011Z,9.00
2023-01-02T15:43:32.518Z,12.00
2023-01-02T15:46:01.165Z,9.50
2023-01-02T15:48:30.586Z,10.00
2023-01-02T15:51:00.849Z,10.75
2023-01-02T15:53:53.650Z,12.50
2023-01-02T15:56:39.696Z,9.75
2023-01-02T15:59:37.968Z,10.00
2023-01-02T16:02:08.364Z,10.75
2023-01-02T16:04:36.949Z,10.00
2023-01-02T16:07:27.611Z,9.25
2023-01-02T16:09:57.541Z,10.00
2023-01-02T16:12:26.132Z,10.25
2023-01-02T16:14:58.190Z,10.50
2023-01-02T16:17:36.031Z,10.50
2023-01-02T16:20:15.641Z,12.50
2023-01-02T16:23:08.242Z,11.00
2023-01-02T16:25:44.287Z,12.00
2023-01-02T16:28:35.191Z,10.50
2023-01-02T16:31:09.961Z,10.25
2023-01-02T16:33:39.212Z,10.00
2023-01-02T16:36:09.287Z,10.50
2023-01-02T16:38:55.492Z,8.00
2023-01-02T16:41:36.124Z,10.75
2023-01-02T16:44:13.820Z,11.00
2023-01-02T16:46:44.106Z,10.25
2023-01-02T16:49:17.931Z,12.00
2023-01-02T16:51:49.610Z,9.25
2023-01-02T16:54:20.462Z,10.50
2023-01-02T16:56:49.953Z,10.00
2023-01-02T16:59:18.259Z,12.75
2023-01-02T17:01:46.569Z,10.00
2023-01-02T17:04:16.415Z,11.00
2023-01-02T17:06:44.696Z,11.75
2023-01-02T17:09:13.037Z,12.00
2023-01-02T17:12:00.891Z,10.50
2023-01-02T17:14:34.502Z,11.00
2023-01-02T17:17:02.871Z,9.75
2023-01-02T17:19:31.730Z,12.00
2023-01-02T17:22:00.059Z,11.50
2023-01-02T17:24:28.393Z,12.75
2023-01-02T17:26:56.721Z,11.75
2023-01-02T17:29:25.040Z,11.75
2023-01-02T17:31:53.359Z,13.25
2023-01-02T17:34:21.721Z,14.25
2023-01-02T17:36:50.084Z,11.00
2023-01-02T17:39:18.409Z,13.50
2023-01-02T17:41:46.761Z,12.00
2023-01-02T17:44:15.056Z,11.25
2023-01-02T17:49:31.602Z,14.25
2023-01-02T17:51:59.907Z,11.50
2023-01-02T17:54:28.201Z,13.25
2023-01-02T17:56:56.576Z,12.00
2023-01-02T17:59:25.422Z,13.00
2023-01-02T18:01:55.127Z,13.50
2023-01-02T18:04:23.560Z,15.75
2023-01-02T18:06:51.837Z,12.00
2023-01-02T18:09:20.167Z,13.25
2023-01-02T18:11:48.468Z,12.50
2023-01-02T18:14:23.306Z,12.00
2023-01-02T18:16:52.543Z,11.50
2023-01-02T18:19:26.425Z,13.75
2023-01-02T18:21:55.293Z,12.50
2023-01-02T18:24:33.010Z,13.75
2023-01-02T18:27:12.346Z,13.50
2023-01-02T18:29:42.240Z,14.25
2023-01-02T18:32:19.281Z,15.00
2023-01-02T18:34:48.921Z,13.75
2023-01-02T18:37:28.668Z,12.25
2023-01-02T18:39:58.687Z,11.00
2023-01-02T18:42:29.775Z,12.25
2023-01-02T18:45:00.938Z,12.00
2023-01-02T18:47:35.429Z,9.00
2023-01-02T18:50:40.663Z,10.50
2023-01-02T18:53:23.833Z,10.75
2023-01-02T18:55:56.693Z,13.25
2023-01-02T18:58:44.832Z,11.25
2023-01-02T19:01:29.321Z,13.00
2023-01-02T19:04:27.129Z,14.00
2023-01-02T19:06:58.823Z,13.00
2023-01-02T19:09:36.843Z,12.00
2023-01-02T19:12:43.018Z,13.25
2023-01-02T19:15:44.551Z,13.75
2023-01-02T19:18:15.589Z,12.50
2023-01-02T19:20:46.443Z,12.75
2023-01-02T19:23:44.880Z,14.00
2023-01-02T19:26:28.810Z,12.00
2023-01-02T19:29:04.997Z,12.50
2023-01-02T19:31:47.044Z,11.75
2023-01-02T19:34:51.102Z,13.00
2023-01-02T19:37:41.229Z,11.75
2023-01-02T19:40:19.527Z,12.25
2023-01-02T19:42:54.291Z,14.75
2023-01-02T19:45:25.184Z,14.50
2023-01-02T19:47:54.924Z,14.00
2023-01-02T19:50:25.855Z,13.75
2023-01-02T19:52:55.173Z,11.50
2023-01-02T19:55:23.499Z,14.25
2023-01-02T19:57:51.806Z,14.25
2023-01-02T20:00:20.571Z,14.50
2023-01-02T20:02:51.523Z,13.25
2023-01-02T20:05:22.587Z,14.00
2023-01-02T20:07:53.000Z,13.50
2023-01-02T20:10:22.710Z,12.00
2023-01-02T20:12:51.238Z,13.00
2023-01-02T20:15:24.207Z,14.00
2023-01-02T20:17:53.979Z,16.00
2023-01-02T20:20:25.108Z,12.75
2023-01-02T20:22:53.770Z,12.75
2023-01-02T20:25:25.502Z,12.75
2023-01-02T20:27:56.760Z,12.75
2023-01-02T20:30:26.285Z,12.50
2023-01-02T20:32:55.573Z,13.75
2023-01-02T20:35:24.087Z,12.00
2023-01-02T20:37:52.638Z,11.25
2023-01-02T20:40:20.954Z,11.25
2023-01-02T20:42:49.222Z,11.25
2023-01-02T20:45:17.565Z,11.50
2023-01-02T20:47:45.886Z,12.00
2023-01-02T20:50:14.197Z,12.75
2023-01-02T20:52:42.503Z,11.00
2023-01-02T20:55:11.639Z,11.00
2023-01-02T20:57:39.929Z,12.00
2023-01-02T21:00:11.885Z,12.25
2023-01-02T21:02:40.362Z,13.75
2023-01-02T21:05:09.077Z,12.00
2023-01-02T21:07:37.366Z,12.75
2023-01-02T21:10:06.031Z,13.50
2023-01-02T21:12:52.644Z,12.25
2023-01-02T21:15:39.314Z,10.00
2023-01-02T21:18:07.626Z,12.00
2023-01-02T21:20:38.823Z,12.75
2023-01-02T21:23:11.372Z,10.50
2023-01-02T21:25:40.435Z,11.75
2023-01-02T21:28:09.822Z,13.00
2023-01-02T21:30:38.097Z,10.50
2023-01-02T21:33:06.461Z,11.00
2023-01-02T21:35:36.226Z,11.50
2023-01-02T21:38:04.899Z,11.00
2023-01-02T21:40:33.192Z,10.75
2023-01-02T21:43:01.674Z,11.75
2023-01-02T21:45:29.972Z,10.25
2023-01-02T21:47:58.456Z,11.00
2023-01-02T21:50:27.540Z,10.25
2023-01-02T21:52:56.233Z,12.50
2023-01-02T21:55:25.229Z,11.00
2023-01-02T21:58:15.204Z,11.00
2023-01-02T22:00:44.150Z,9.75
2023-01-02T22:03:12.729Z,10.75
2023-01-02T22:05:41.411Z,9.75
2023-01-02T22:08:09.953Z,9.50
2023-01-02T22:10:38.636Z,10.00
2023-01-02T22:13:06.992Z,10.00
2023-01-02T22:15:35.297Z,9.50
2023-01-02T22:18:03.644Z,11.25
2023-01-02T22:20:32.002Z,12.25
2023-01-02T22:23:00.353Z,10.00
2023-01-02T22:25:29.061Z,9.00
2023-01-02T22:27:57.478Z,9.00
2023-01-02T22:30:33.377Z,10.00
2023-01-02T22:33:02.470Z,11.25
2023-01-02T22:35:30.962Z,8.25
2023-01-02T22:38:00.311Z,10.50
2023-01-02T22:40:30.019Z,11.00
2023-01-02T22:43:02.160Z,9.25
2023-01-02T22:45:46.826Z,9.25
2023-01-02T22:48:24.981Z,11.00
2023-01-02T22:50:56.455Z,9.25
2023-01-02T22:53:30.488Z,10.50
2023-01-02T22:55:59.457Z,10.25
2023-01-02T22:58:27.934Z,11.75
2023-01-02T23:01:04.153Z,11.00
2023-01-02T23:03:40.097Z,11.00
2023-01-02T23:06:08.650Z,11.00
2023-01-02T23:08:36.996Z,9.25
2023-01-02T23:11:07.467Z,10.00
2023-01-02T23:13:37.151Z,10.50
2023-01-02T23:16:24.362Z,8.75
2023-01-02T23:19:11.073Z,9.00
2023-01-02T23:21:40.305Z,10.50
2023-01-02T23:24:09.267Z,11.00
2023-01-02T23:26:42.322Z,9.50
2023-01-02T23:29:12.246Z,8.75
2023-01-02T23:31:43.530Z,11.00
2023-01-02T23:34:14.226Z,10.00
2023-01-02T23:36:43.533Z,10.75
2023-01-02T23:39:17.875Z,11.00
2023-01-02T23:41:46.930Z,11.00
2023-01-02T23:44:16.485Z,10.00
2023-01-02T23:46:46.345Z,8.75
2023-01-02T23:49:17.055Z,11.50
2023-01-02T23:51:45.952Z,11.25
2023-01-02T23:54:16.507Z,11.00
2023-01-02T23:56:47.992Z,11.00
2023-01-02T23:59:22.457Z,11.00
